Time;durP1;ratioP1;P1;durP2;ratioP2;P2;SDS_P1;SDS_P2;PMS_P1;PMS_P2;Temp;Humidity;BMP_temperature;BMP_pressure;BME280_temperature;BME280_humidity;BME280_pressure;Samples;Min_cycle;Max_cycle;Signal;HPM_P1;HPM_P2
2022/11/28 00:01:22;;;;;;;43.85;24.20;;;;;;;3.39;82.74;98490.14;1728083;81;21458;-83
2022/11/28 00:03:49;;;;;;;45.80;24.52;;;;;;;3.41;83.00;98489.28;1732039;81;21016;-83
2022/11/28 00:06:15;;;;;;;42.48;24.47;;;;;;;3.40;82.77;98495.40;1732270;81;21008;-83
2022/11/28 00:08:42;;;;;;;45.48;24.00;;;;;;;3.38;82.78;98488.39;1745136;81;21022;-82
2022/11/28 00:11:12;;;;;;;44.05;23.85;;;;;;;3.34;82.66;98486.61;1734807;81;21387;-83
2022/11/28 00:13:40;;;;;;;43.65;24.92;;;;;;;3.31;82.63;98490.09;1732377;81;21036;-83
2022/11/28 00:16:10;;;;;;;36.65;22.45;;;;;;;3.29;82.57;98483.52;1732240;81;21464;-83
2022/11/28 00:18:37;;;;;;;40.73;23.18;;;;;;;3.27;82.57;98484.37;1745272;81;22195;-83
2022/11/28 00:21:09;;;;;;;46.40;24.40;;;;;;;3.24;82.65;98481.30;1726127;81;21018;-84
2022/11/28 00:23:36;;;;;;;43.50;24.35;;;;;;;3.23;82.38;98479.55;1725019;81;21075;-84
2022/11/28 00:26:10;;;;;;;44.42;23.77;;;;;;;3.17;82.40;98474.27;1743953;81;20948;-84
2022/11/28 00:28:37;;;;;;;43.42;23.65;;;;;;;3.13;82.38;98480.34;1694657;84;21024;-84
2022/11/28 00:31:04;;;;;;;43.38;22.93;;;;;;;3.09;82.46;98483.80;1679974;84;20989;-84
2022/11/28 00:33:32;;;;;;;43.05;23.67;;;;;;;3.07;82.56;98486.84;1687683;84;22062;-84
2022/11/28 00:36:02;;;;;;;42.33;23.07;;;;;;;3.05;82.64;98484.21;1694595;84;21064;-84
2022/11/28 00:38:30;;;;;;;41.60;23.52;;;;;;;3.02;82.46;98485.48;1686516;84;21016;-84
2022/11/28 00:41:02;;;;;;;46.95;24.72;;;;;;;3.00;82.57;98482.84;1680028;84;21014;-83
2022/11/28 00:43:29;;;;;;;58.68;28.52;;;;;;;2.97;82.70;98484.56;1697002;84;21014;-84
2022/11/28 00:45:56;;;;;;;57.95;29.32;;;;;;;2.96;82.67;98481.09;1671642;84;21016;-84
2022/11/28 00:48:24;;;;;;;57.60;28.12;;;;;;;2.94;82.70;98481.48;1676702;84;22134;-83
2022/11/28 00:50:52;;;;;;;56.42;26.97;;;;;;;2.93;82.74;98488.02;1687188;84;20989;-84
2022/11/28 00:53:18;;;;;;;53.90;29.92;;;;;;;2.93;82.84;98484.98;1677740;84;20989;-83
2022/11/28 00:55:45;;;;;;;59.75;30.70;;;;;;;2.94;83.01;98474.94;1687025;84;21052;-82
2022/11/28 00:58:12;;;;;;;62.45;31.55;;;;;;;2.96;83.25;98474.96;1687146;84;21072;-82
2022/11/28 01:00:39;;;;;;;64.00;33.13;;;;;;;2.99;83.36;98472.38;1676847;84;21053;-83
2022/11/28 01:03:05;;;;;;;62.15;31.48;;;;;;;3.00;83.11;98476.30;1676356;84;21033;-83
2022/11/28 01:05:32;;;;;;;60.10;30.95;;;;;;;2.97;83.12;98472.78;1682291;84;20982;-83
2022/11/28 01:07:58;;;;;;;58.50;30.82;;;;;;;2.97;83.12;98472.36;1677125;84;21025;-83
2022/11/28 01:10:26;;;;;;;58.30;30.95;;;;;;;2.96;83.01;98468.00;1671546;84;21424;-83
2022/11/28 01:12:52;;;;;;;66.72;32.30;;;;;;;2.95;83.21;98466.67;1717723;82;21026;-83
2022/11/28 01:15:18;;;;;;;64.07;33.83;;;;;;;2.95;83.28;98462.29;1726471;82;21044;-83
2022/11/28 01:17:45;;;;;;;55.23;28.83;;;;;;;2.96;83.57;98463.18;1719085;82;21473;-83
2022/11/28 01:20:12;;;;;;;59.65;28.95;;;;;;;2.92;83.96;98460.97;1719377;82;20957;-83
2022/11/28 01:22:39;;;;;;;51.63;28.00;;;;;;;2.88;83.95;98457.88;1719463;82;20977;-83
2022/11/28 01:25:06;;;;;;;55.12;29.40;;;;;;;2.87;83.92;98451.75;1730759;81;21575;-83
2022/11/28 01:27:33;;;;;;;48.87;25.75;;;;;;;2.90;84.01;98452.21;1725890;82;21028;-83
2022/11/28 01:29:59;;;;;;;47.38;25.55;;;;;;;2.91;84.10;98455.30;1713700;82;20992;-83
2022/11/28 01:32:26;;;;;;;38.58;22.17;;;;;;;2.88;84.42;98449.61;1713177;84;20973;-83
2022/11/28 01:34:53;;;;;;;43.65;24.27;;;;;;;2.87;84.52;98445.66;1729269;82;21422;-83
2022/11/28 01:37:19;;;;;;;40.35;23.30;;;;;;;2.87;84.08;98446.97;1702134;83;20925;-83
2022/11/28 01:39:46;;;;;;;45.10;23.85;;;;;;;2.88;84.12;98451.33;1714949;82;21052;-83
2022/11/28 01:42:19;;;;;;;39.88;22.82;;;;;;;2.91;84.52;98453.98;1731105;82;20958;-83
2022/11/28 01:45:00;;;;;;;45.35;21.80;;;;;;;2.93;84.46;98457.48;1727567;82;21032;-84
2022/11/28 01:47:29;;;;;;;41.58;22.37;;;;;;;2.95;84.16;98454.44;1714994;82;21454;-83
2022/11/28 01:49:56;;;;;;;44.03;23.75;;;;;;;2.97;84.57;98446.60;1715265;82;21020;-83
2022/11/28 01:52:23;;;;;;;49.85;25.40;;;;;;;3.06;84.81;98453.22;1687678;83;21044;-83
2022/11/28 01:54:54;;;;;;;44.75;23.27;;;;;;;3.13;84.59;98447.61;1669887;85;21042;-83
2022/11/28 01:57:24;;;;;;;41.45;20.62;;;;;;;3.20;84.63;98448.08;1718753;82;21021;-82
2022/11/28 02:00:17;;;;;;;38.92;21.12;;;;;;;3.27;84.57;98447.70;1717048;82;21029;-83
2022/11/28 02:02:51;;;;;;;40.00;21.27;;;;;;;3.34;84.61;98444.69;1693736;83;20997;-83
2022/11/28 02:05:20;;;;;;;36.42;20.00;;;;;;;3.37;84.52;98445.58;1733224;81;20996;-83
2022/11/28 02:07:49;;;;;;;38.33;20.17;;;;;;;3.40;84.30;98440.80;1724708;81;20993;-83
2022/11/28 02:10:32;;;;;;;36.17;19.87;;;;;;;3.41;84.39;98438.64;1702634;83;22143;-83
2022/11/28 02:13:10;;;;;;;32.05;18.42;;;;;;;3.42;84.41;98436.04;1731237;81;20993;-82
2022/11/28 02:15:58;;;;;;;38.45;20.88;;;;;;;3.39;84.18;98435.12;1726985;81;21434;-83
2022/11/28 02:18:30;;;;;;;39.03;20.92;;;;;;;3.34;83.95;98428.97;1726725;81;20993;-82
2022/11/28 02:21:17;;;;;;;36.93;20.25;;;;;;;3.21;83.82;98430.22;1718971;82;21035;-82
2022/11/28 02:24:13;;;;;;;37.35;21.30;;;;;;;3.10;83.87;98434.06;1728297;81;20993;-83
2022/11/28 02:27:08;;;;;;;38.65;20.92;;;;;;;3.02;83.75;98430.48;1726409;81;21391;-82
2022/11/28 02:30:21;;;;;;;39.00;21.15;;;;;;;2.94;83.76;98431.74;1723195;81;20993;-83
2022/11/28 02:33:17;;;;;;;38.13;22.40;;;;;;;2.92;83.99;98437.41;1712385;82;21079;-83
2022/11/28 02:36:04;;;;;;;41.28;22.70;;;;;;;2.86;84.08;98433.44;1720426;81;21004;-83
2022/11/28 02:38:39;;;;;;;42.88;23.87;;;;;;;2.79;84.13;98427.69;1725294;81;20999;-83
2022/11/28 02:41:16;;;;;;;46.53;24.25;;;;;;;2.73;84.08;98430.70;1726945;81;21409;-83
2022/11/28 02:44:17;;;;;;;45.08;23.75;;;;;;;2.68;84.49;98440.25;1725856;81;21117;-83
2022/11/28 02:46:58;;;;;;;48.45;24.98;;;;;;;2.63;84.56;98438.02;1722047;81;21011;-83
2022/11/28 02:49:33;;;;;;;49.63;24.98;;;;;;;2.55;84.82;98437.95;1731301;81;21318;-83
2022/11/28 02:52:08;;;;;;;48.33;25.85;;;;;;;2.55;84.81;98436.64;1728384;81;20985;-83
2022/11/28 02:54:37;;;;;;;47.35;25.02;;;;;;;2.56;84.85;98433.58;1723510;81;21000;-83
2022/11/28 02:57:05;;;;;;;49.63;25.52;;;;;;;2.57;84.68;98433.59;1709133;81;21051;-83
2022/11/28 02:59:43;;;;;;;46.65;25.57;;;;;;;2.58;84.99;98434.04;1732355;81;20997;-83
2022/11/28 03:02:21;;;;;;;47.98;25.43;;;;;;;2.58;84.68;98430.11;1727265;81;20989;-83
2022/11/28 03:04:54;;;;;;;50.15;24.75;;;;;;;2.57;84.63;98431.44;1724397;82;21048;-82
2022/11/28 03:07:31;;;;;;;45.70;25.55;;;;;;;2.55;84.62;98428.80;1715318;82;21000;-82
2022/11/28 03:10:37;;;;;;;44.25;23.77;;;;;;;2.55;84.54;98430.52;1718499;82;20989;-83
2022/11/28 03:13:19;;;;;;;;;;;;;;;2.51;85.15;98428.31;1710168;83;21421;-83
2022/11/28 03:16:00;;;;;;;42.73;22.82;;;;;;;2.47;85.25;98431.75;1672060;85;20116;-82
2022/11/28 03:18:35;;;;;;;50.05;23.15;;;;;;;2.40;85.27;98429.95;1706108;82;21020;-82
2022/11/28 03:21:13;;;;;;;40.85;21.73;;;;;;;2.40;85.07;98424.72;1730715;82;21064;-82
2022/11/28 03:23:47;;;;;;;40.90;21.30;;;;;;;2.39;84.83;98430.37;1717162;82;20963;-82
2022/11/28 03:26:49;;;;;;;42.43;21.37;;;;;;;2.40;85.03;98415.11;1712878;82;20989;-82
2022/11/28 03:29:21;;;;;;;42.35;21.60;;;;;;;2.41;85.04;98422.09;1736044;82;22119;-83
2022/11/28 03:31:56;;;;;;;38.40;21.50;;;;;;;2.41;85.03;98419.48;1722299;82;21036;-82
2022/11/28 03:34:28;;;;;;;42.62;21.80;;;;;;;2.41;84.93;98412.94;1719569;82;21008;-83
2022/11/28 03:37:06;;;;;;;40.00;23.07;;;;;;;2.43;84.99;98416.47;1718192;82;21024;-82
2022/11/28 03:39:40;;;;;;;37.60;22.17;;;;;;;2.45;85.09;98413.42;1715140;83;21422;-82
2022/11/28 03:42:18;;;;;;;44.60;22.73;;;;;;;2.45;85.06;98413.42;1671412;85;21049;-75
2022/11/28 03:44:55;;;;;;;44.88;22.95;;;;;;;2.46;85.04;98406.02;1715520;82;20985;-76
2022/11/28 03:47:27;;;;;;;43.00;23.45;;;;;;;2.48;84.86;98409.95;1699908;82;20978;-76
2022/11/28 03:49:59;;;;;;;46.15;23.47;;;;;;;2.52;84.71;98410.89;1742985;82;20964;-75
2022/11/28 03:52:39;;;;;;;42.53;24.23;;;;;;;2.54;84.71;98412.66;1697546;82;20996;-76
2022/11/28 03:55:13;;;;;;;46.40;24.32;;;;;;;2.59;84.91;98407.45;1717102;82;21076;-75
2022/11/28 03:58:06;;;;;;;45.15;22.58;;;;;;;2.62;84.82;98410.11;1717197;82;21006;-75
2022/11/28 04:00:37;;;;;;;43.40;23.73;;;;;;;2.63;84.89;98413.16;1717836;82;21028;-75
2022/11/28 04:03:27;;;;;;;41.42;22.65;;;;;;;2.66;85.33;98415.82;1719301;82;21033;-75
2022/11/28 04:06:05;;;;;;;47.13;24.35;;;;;;;2.76;85.55;98408.91;1719464;82;21029;-77
2022/11/28 04:08:37;;;;;;;41.40;24.37;;;;;;;2.79;85.50;98410.25;1719798;82;21051;-75
2022/11/28 04:11:18;;;;;;;45.78;23.38;;;;;;;2.81;85.41;98419.41;1722210;82;20985;-76
2022/11/28 04:13:53;;;;;;;45.45;24.20;;;;;;;2.86;85.53;98419.05;1716259;82;21064;-75
2022/11/28 04:16:39;;;;;;;44.70;24.60;;;;;;;2.87;85.52;98413.79;1719395;82;21064;-77
2022/11/28 04:19:23;;;;;;;50.83;25.97;;;;;;;2.86;85.36;98407.27;1730391;82;21091;-76
2022/11/28 04:22:03;;;;;;;47.67;25.83;;;;;;;2.84;85.65;98413.78;1679416;85;20976;-75
2022/11/28 04:24:38;;;;;;;63.05;27.10;;;;;;;2.86;85.93;98414.66;1717065;82;20992;-75
2022/11/28 04:27:12;;;;;;;51.02;27.52;;;;;;;2.88;85.73;98417.30;1716217;82;20981;-75
2022/11/28 04:29:46;;;;;;;49.65;26.70;;;;;;;2.85;85.46;98415.53;1708625;83;21068;-75
2022/11/28 04:32:17;;;;;;;57.30;28.77;;;;;;;2.81;85.43;98412.44;1717510;82;21426;-76
2022/11/28 04:34:49;;;;;;;54.03;28.12;;;;;;;2.79;85.60;98406.75;1691394;83;20985;-76
2022/11/28 04:37:19;;;;;;;50.40;27.22;;;;;;;2.81;85.83;98408.94;1717251;82;21465;-76
2022/11/28 04:39:48;;;;;;;55.12;28.27;;;;;;;2.81;85.46;98410.24;1715491;83;21509;-76
2022/11/28 04:42:20;;;;;;;52.85;27.17;;;;;;;2.75;85.33;98418.94;1632078;87;20997;-76
2022/11/28 04:44:55;;;;;;;54.58;28.92;;;;;;;2.71;85.20;98416.73;1694600;83;21012;-76
2022/11/28 04:47:23;;;;;;;54.08;30.12;;;;;;;2.67;85.15;98420.60;1720179;82;21438;-76
2022/11/28 04:49:51;;;;;;;57.67;30.30;;;;;;;2.63;85.27;98416.64;1739488;82;21036;-77
2022/11/28 04:52:34;;;;;;;56.37;29.92;;;;;;;2.65;85.53;98417.97;1686305;83;21386;-77
2022/11/28 04:55:14;;;;;;;56.58;29.72;;;;;;;2.66;85.63;98414.93;1719360;82;21358;-76
2022/11/28 04:57:48;;;;;;;56.77;30.75;;;;;;;2.66;85.50;98418.44;1731807;82;20951;-76
2022/11/28 05:00:18;;;;;;;;;;;;;;;2.66;85.50;98419.75;1728199;82;21024;-76
2022/11/28 05:02:48;;;;;;;55.15;27.42;;;;;;;2.65;85.59;98417.97;1717646;82;20139;-76
2022/11/28 05:05:20;;;;;;;59.27;29.70;;;;;;;2.64;85.55;98424.07;1713396;83;20965;-77
2022/11/28 05:07:47;;;;;;;55.65;28.70;;;;;;;2.61;85.31;98418.38;1698342;83;21012;-77
2022/11/28 05:10:16;;;;;;;59.77;28.90;;;;;;;2.55;85.36;98420.94;1719423;82;20992;-78
2022/11/28 05:12:42;;;;;;;54.03;29.75;;;;;;;2.52;85.51;98420.91;1719510;82;21005;-78
2022/11/28 05:15:10;;;;;;;57.88;29.65;;;;;;;2.50;85.58;98418.27;1717290;82;21013;-76
2022/11/28 05:17:37;;;;;;;56.05;29.82;;;;;;;2.48;85.83;98424.34;1713816;83;21036;-77
2022/11/28 05:20:06;;;;;;;55.52;29.12;;;;;;;2.47;85.98;98423.91;1672129;85;20999;-76
2022/11/28 05:22:33;;;;;;;64.82;32.55;;;;;;;2.52;86.19;98425.28;1715695;82;20989;-76
2022/11/28 05:24:59;;;;;;;64.35;31.45;;;;;;;2.54;86.38;98423.13;1686950;83;20984;-76
2022/11/28 05:27:25;;;;;;;63.40;32.25;;;;;;;2.58;86.59;98434.04;1722373;80;21076;-76
2022/11/28 05:29:52;;;;;;;62.40;33.42;;;;;;;2.60;86.34;98428.41;1717528;82;20972;-76
2022/11/28 05:32:19;;;;;;;63.30;32.15;;;;;;;2.62;86.17;98433.66;1716535;82;20996;-76
2022/11/28 05:34:46;;;;;;;71.55;33.83;;;;;;;2.59;86.31;98427.08;1713243;83;20993;-76
2022/11/28 05:37:12;;;;;;;63.75;33.73;;;;;;;2.62;86.41;98434.52;1705565;83;21028;-76
2022/11/28 05:39:39;;;;;;;77.65;35.73;;;;;;;2.62;86.35;98435.83;1679193;85;21010;-78
2022/11/28 05:42:05;;;;;;;74.05;35.60;;;;;;;2.65;86.53;98434.98;1714001;82;21059;-78
2022/11/28 05:44:32;;;;;;;71.82;34.27;;;;;;;2.68;86.72;98433.70;1718535;82;21080;-78
2022/11/28 05:46:59;;;;;;;74.17;36.05;;;;;;;2.70;86.70;98435.89;1717469;82;21000;-77
2022/11/28 05:49:27;;;;;;;73.45;34.25;;;;;;;2.72;86.77;98430.27;1715166;83;21020;-77
2022/11/28 05:51:54;;;;;;;78.35;36.93;;;;;;;2.76;86.78;98436.39;1717951;82;21072;-76
2022/11/28 05:54:20;;;;;;;82.17;38.28;;;;;;;2.79;86.81;98438.16;1719373;82;20981;-77
2022/11/28 05:56:47;;;;;;;74.42;36.38;;;;;;;2.83;86.66;98440.80;1715184;83;21101;-76
2022/11/28 05:59:13;;;;;;;73.10;37.28;;;;;;;2.84;86.59;98440.38;1732742;82;21036;-77
2022/11/28 06:01:40;;;;;;;80.77;36.83;;;;;;;2.87;86.55;98436.50;1701552;83;21008;-77
2022/11/28 06:04:06;;;;;;;85.50;38.30;;;;;;;2.89;86.56;98435.64;1715091;82;21152;-77
2022/11/28 06:06:35;;;;;;;77.00;36.35;;;;;;;2.95;86.64;98426.94;1726130;80;21001;-77
2022/11/28 06:09:03;;;;;;;88.20;40.83;;;;;;;3.00;86.70;98424.38;1727080;81;21517;-77
2022/11/28 06:11:32;;;;;;;83.85;38.40;;;;;;;3.08;87.23;98430.56;1725502;81;21000;-77
2022/11/28 06:13:59;;;;;;;93.50;40.33;;;;;;;3.16;87.32;98428.86;1722444;82;20989;-77
2022/11/28 06:16:29;;;;;;;89.25;40.28;;;;;;;3.23;87.29;98419.72;1722573;81;21027;-77
2022/11/28 06:19:00;;;;;;;91.60;40.78;;;;;;;3.30;87.38;98430.70;1727828;81;21514;-77
2022/11/28 06:21:28;;;;;;;87.33;39.27;;;;;;;3.38;87.38;98423.78;1728888;81;21408;-76
2022/11/28 06:23:57;;;;;;;97.00;39.23;;;;;;;3.45;87.30;98414.22;1727798;81;20996;-76
2022/11/28 06:26:26;;;;;;;91.05;40.08;;;;;;;3.52;87.51;98413.38;1739682;81;21378;-76
2022/11/28 06:28:58;;;;;;;92.80;41.88;;;;;;;3.63;87.60;98418.68;1731685;81;21422;-77
2022/11/28 06:31:29;;;;;;;77.90;35.65;;;;;;;3.69;87.46;98425.26;1728478;81;21068;-76
2022/11/28 06:33:57;;;;;;;66.62;31.20;;;;;;;3.70;87.12;98423.06;1739869;81;20988;-77
2022/11/28 06:36:25;;;;;;;66.77;31.60;;;;;;;3.70;86.80;98423.06;1743607;81;21450;-75
2022/11/28 06:38:52;;;;;;;66.10;30.55;;;;;;;3.67;86.79;98423.08;1699156;83;21507;-76
2022/11/28 06:41:21;;;;;;;65.60;31.02;;;;;;;3.66;86.82;98423.92;1683429;84;21041;-75
2022/11/28 06:43:48;;;;;;;65.47;30.17;;;;;;;3.64;86.65;98421.73;1748922;81;21019;-75
2022/11/28 06:46:18;;;;;;;65.45;30.23;;;;;;;3.65;86.96;98426.10;1754540;81;21410;-75
2022/11/28 06:48:48;;;;;;;62.23;29.50;;;;;;;3.66;86.93;98423.92;1753931;81;20956;-75
2022/11/28 06:51:16;;;;;;;58.17;29.10;;;;;;;3.68;86.73;98423.52;1742161;81;20976;-76
2022/11/28 06:53:43;;;;;;;61.75;29.52;;;;;;;3.65;86.64;98428.72;1732383;81;21004;-76
2022/11/28 06:56:14;;;;;;;60.85;29.70;;;;;;;3.65;86.65;98424.80;1727484;81;21460;-76
2022/11/28 06:58:44;;;;;;;63.23;30.27;;;;;;;3.64;86.33;98428.71;1739127;81;20975;-76
2022/11/28 07:01:17;;;;;;;63.35;30.08;;;;;;;3.60;86.40;98423.89;1714462;82;21738;-76
2022/11/28 07:03:45;;;;;;;60.67;29.15;;;;;;;3.58;86.56;98422.13;1729259;81;20965;-76
2022/11/28 07:06:14;;;;;;;69.17;31.27;;;;;;;3.58;86.46;98423.44;1724906;81;21027;-76
2022/11/28 07:08:42;;;;;;;64.50;31.48;;;;;;;3.53;86.60;98424.74;1709863;84;21068;-76
2022/11/28 07:11:28;;;;;;;71.70;33.13;;;;;;;3.49;86.47;98426.44;1691161;84;21004;-77
2022/11/28 07:13:56;;;;;;;69.45;31.97;;;;;;;3.46;86.62;98426.87;1699188;84;21007;-76
2022/11/28 07:16:27;;;;;;;72.32;34.43;;;;;;;3.43;86.59;98415.52;1678108;84;21025;-77
2022/11/28 07:18:55;;;;;;;69.25;30.75;;;;;;;3.44;86.67;98415.06;1703647;83;20977;-76
2022/11/28 07:21:23;;;;;;;73.65;34.23;;;;;;;3.46;86.65;98421.63;1718835;83;21012;-76
2022/11/28 07:23:50;;;;;;;70.50;33.00;;;;;;;3.44;86.72;98412.44;1721377;82;21446;-77
2022/11/28 07:26:20;;;;;;;69.72;31.82;;;;;;;3.46;86.49;98413.34;1716275;83;21131;-76
2022/11/28 07:28:48;;;;;;;65.62;32.10;;;;;;;3.49;86.65;98407.24;1711911;83;21096;-77
2022/11/28 07:31:19;;;;;;;73.07;33.70;;;;;;;3.51;86.69;98410.31;1718764;83;20993;-77
2022/11/28 07:33:49;;;;;;;72.12;34.15;;;;;;;3.54;86.72;98406.38;1723672;82;20983;-77
2022/11/28 07:36:22;;;;;;;67.15;33.23;;;;;;;3.56;86.78;98408.59;1716632;82;21622;-77
2022/11/28 07:38:56;;;;;;;76.65;33.18;;;;;;;3.58;86.57;98407.72;1736749;82;21032;-74
2022/11/28 07:41:29;;;;;;;69.07;33.60;;;;;;;3.60;86.59;98412.09;1748103;82;21003;-76
2022/11/28 07:44:01;;;;;;;72.85;33.28;;;;;;;3.61;86.55;98407.30;1736773;82;21013;-76
2022/11/28 07:46:30;;;;;;;67.47;33.33;;;;;;;3.74;87.38;98400.81;1730637;82;21031;-76
2022/11/28 07:48:57;;;;;;;71.25;31.00;;;;;;;3.77;86.17;98389.89;1749363;82;21032;-76
2022/11/28 07:51:31;;;;;;;63.20;31.30;;;;;;;3.77;86.20;98406.94;1718673;82;21107;-76
2022/11/28 07:54:02;;;;;;;64.50;32.13;;;;;;;3.81;86.03;98403.47;1724537;82;21143;-75
2022/11/28 07:56:34;;;;;;;66.87;32.58;;;;;;;3.83;85.97;98402.17;1717876;82;21053;-76
2022/11/28 07:59:01;;;;;;;66.72;32.53;;;;;;;3.80;85.86;98405.66;1717866;81;21029;-76
2022/11/28 08:01:34;;;;;;;64.53;30.45;;;;;;;3.81;85.83;98397.33;1711867;83;20997;-77
2022/11/28 08:04:07;;;;;;;65.10;30.00;;;;;;;3.85;85.98;98399.11;1723161;82;21016;-75
2022/11/28 08:06:38;;;;;;;63.92;32.23;;;;;;;3.88;85.83;98399.55;1725792;83;21000;-74
2022/11/28 08:09:07;;;;;;;64.22;31.87;;;;;;;3.92;85.73;98392.14;1732022;82;20992;-69
2022/11/28 08:11:35;;;;;;;67.22;32.20;;;;;;;3.95;85.86;98384.30;1736378;81;21028;-71
2022/11/28 08:14:03;;;;;;;65.32;31.40;;;;;;;4.00;85.81;98383.88;1752155;81;21231;-70
2022/11/28 08:16:32;;;;;;;60.88;30.05;;;;;;;4.04;85.63;98384.75;1735828;81;21076;-69
2022/11/28 08:19:02;;;;;;;60.20;29.90;;;;;;;4.05;85.60;98379.52;1731797;83;20985;-70
2022/11/28 08:21:32;;;;;;;58.30;29.23;;;;;;;4.11;85.55;98378.64;1733389;81;20926;-70
2022/11/28 08:24:01;;;;;;;59.27;29.82;;;;;;;4.19;85.64;98379.55;1731612;82;21446;-70
2022/11/28 08:26:31;;;;;;;66.12;32.40;;;;;;;4.29;85.51;98380.45;1731669;83;21038;-69
2022/11/28 08:29:00;;;;;;;59.95;30.85;;;;;;;4.35;85.48;98375.63;1738577;81;20992;-69
2022/11/28 08:31:31;;;;;;;61.80;30.97;;;;;;;4.45;85.14;98382.64;1738128;81;21498;-69
2022/11/28 08:34:01;;;;;;;59.10;29.27;;;;;;;4.54;84.93;98376.97;1731252;82;20957;-73
2022/11/28 08:36:28;;;;;;;59.30;31.00;;;;;;;4.61;84.68;98371.73;1732023;82;21000;-68
2022/11/28 08:38:55;;;;;;;66.37;31.82;;;;;;;4.70;84.30;98371.30;1745796;81;20996;-73
2022/11/28 08:41:23;;;;;;;64.82;29.63;;;;;;;4.79;84.30;98368.68;1749337;80;21000;-72
2022/11/28 08:43:50;;;;;;;58.63;30.08;;;;;;;4.88;84.29;98366.48;1733818;81;21007;-72
2022/11/28 08:46:23;;;;;;;60.88;31.42;;;;;;;5.00;84.27;98362.55;1731553;81;21047;-72
2022/11/28 08:48:51;;;;;;;64.37;31.42;;;;;;;5.12;84.36;98355.05;1736869;81;20967;-72
2022/11/28 08:51:22;;;;;;;62.30;29.52;;;;;;;5.26;84.21;98351.53;1732687;81;21343;-72
2022/11/28 08:53:51;;;;;;;63.52;30.40;;;;;;;5.42;83.96;98352.38;1742471;81;21031;-72
2022/11/28 08:56:23;;;;;;;67.27;30.97;;;;;;;5.55;82.59;98348.83;1732047;81;20980;-71
2022/11/28 08:58:53;;;;;;;67.80;32.08;;;;;;;5.67;83.03;98337.83;1740921;81;20991;-72
2022/11/28 09:01:25;;;;;;;70.42;31.87;;;;;;;5.79;82.75;98333.84;1738452;81;20988;-72
2022/11/28 09:03:54;;;;;;;55.63;27.80;;;;;;;5.87;82.46;98331.17;1748459;81;20956;-72
2022/11/28 09:06:23;;;;;;;51.95;25.23;;;;;;;5.93;81.31;98328.92;1737793;81;21414;-72
2022/11/28 09:08:50;;;;;;;51.10;27.35;;;;;;;5.88;80.82;98325.02;1738869;81;21425;-72
2022/11/28 09:11:20;;;;;;;52.05;26.42;;;;;;;5.83;81.39;98322.85;1731119;81;21124;-72
2022/11/28 09:13:48;;;;;;;42.85;22.62;;;;;;;5.78;80.41;98314.97;1749076;81;21461;-72
2022/11/28 09:16:18;;;;;;;48.35;23.80;;;;;;;5.70;80.84;98308.89;1739855;81;21000;-72
2022/11/28 09:18:45;;;;;;;44.53;22.75;;;;;;;5.67;79.70;98313.73;1728583;81;21127;-71
2022/11/28 09:21:13;;;;;;;46.10;24.47;;;;;;;5.60;79.52;98309.36;1731296;81;20999;-72
2022/11/28 09:23:43;;;;;;;50.70;24.92;;;;;;;5.55;79.19;98307.19;1725937;81;20968;-72
2022/11/28 09:26:12;;;;;;;51.20;23.85;;;;;;;5.55;79.70;98300.19;1696203;83;21036;-74
2022/11/28 09:28:39;;;;;;;41.98;22.45;;;;;;;5.58;79.98;98298.42;1679088;84;21056;-72
2022/11/28 09:31:06;;;;;;;48.13;23.22;;;;;;;5.59;80.02;98293.59;1686672;84;21005;-73
2022/11/28 09:33:34;;;;;;;45.55;21.68;;;;;;;5.61;79.43;98291.84;1726410;83;20949;-72
2022/11/28 09:36:10;;;;;;;40.23;19.55;;;;;;;5.64;79.41;98291.38;1726705;83;20993;-72
2022/11/28 09:38:38;;;;;;;39.18;19.05;;;;;;;5.66;78.28;98287.44;1732571;81;21435;-72
2022/11/28 09:41:52;;;;;;;34.65;17.67;;;;;;;5.68;78.03;98277.77;1726741;83;21012;-72
2022/11/28 09:44:51;;;;;;;37.03;17.48;;;;;;;5.70;77.98;98281.70;1722797;83;20985;-71
2022/11/28 09:47:25;;;;;;;31.27;16.35;;;;;;;5.72;78.53;98272.92;1715743;82;21071;-72
2022/11/28 09:50:10;;;;;;;28.17;13.93;;;;;;;5.77;77.46;98274.23;1735061;81;21020;-72
2022/11/28 09:52:56;;;;;;;31.33;15.50;;;;;;;5.83;76.83;98274.19;1730158;81;21055;-74
2022/11/28 09:55:39;;;;;;;32.00;15.10;;;;;;;5.90;77.45;98271.94;1725270;83;20981;-78
2022/11/28 09:58:17;;;;;;;31.97;16.80;;;;;;;5.99;76.53;98261.83;1722144;83;21371;-77
2022/11/28 10:00:52;;;;;;;30.32;16.00;;;;;;;6.10;75.91;98270.11;1747186;81;20980;-75
2022/11/28 10:03:30;;;;;;;27.58;13.38;;;;;;;6.23;74.87;98270.89;1749709;81;21059;-75
2022/11/28 10:06:05;;;;;;;25.20;12.95;;;;;;;6.30;73.73;98264.68;1749198;81;21006;-76
2022/11/28 10:08:43;;;;;;;27.67;13.80;;;;;;;6.35;74.78;98269.47;1751560;82;21047;-75
2022/11/28 10:11:32;;;;;;;25.32;12.60;;;;;;;6.39;73.95;98260.66;1739600;82;21036;-75
2022/11/28 10:14:35;;;;;;;22.82;12.90;;;;;;;6.50;73.99;98255.73;1678727;85;21051;-75
2022/11/28 10:17:13;;;;;;;20.90;11.18;;;;;;;6.60;74.18;98250.39;1740809;82;21020;-75
2022/11/28 10:19:48;;;;;;;24.50;12.05;;;;;;;6.72;73.64;98247.19;1748310;82;21005;-75
2022/11/28 10:22:22;;;;;;;20.43;10.78;;;;;;;6.85;72.38;98243.55;1747803;82;21059;-74
2022/11/28 10:24:54;;;;;;;;;;;;;;;6.97;71.56;98239.91;1715533;83;22012;-74
2022/11/28 10:27:28;;;;;;;17.48;9.73;;;;;;;7.10;71.67;98238.48;1674496;85;20092;-73
2022/11/28 10:30:09;;;;;;;18.35;9.68;;;;;;;7.20;70.27;98238.79;1678178;85;21001;-74
2022/11/28 10:32:41;;;;;;;21.15;10.63;;;;;;;7.34;70.99;98236.41;1751016;81;21015;-74
2022/11/28 10:35:33;;;;;;;19.75;10.75;;;;;;;8.14;67.23;98234.41;1747556;82;21051;-73
2022/11/28 10:38:00;;;;;;;21.90;12.07;;;;;;;9.14;65.79;98233.14;1721221;82;21028;-73
2022/11/28 10:40:38;;;;;;;21.10;12.58;;;;;;;10.10;65.45;98230.19;1751050;82;21460;-73
2022/11/28 10:43:40;;;;;;;19.70;11.68;;;;;;;10.88;62.50;98226.95;1723329;80;21146;-74
2022/11/28 10:46:56;;;;;;;21.07;13.13;;;;;;;11.75;61.96;98225.33;1713913;83;21013;-74
2022/11/28 10:49:57;;;;;;;20.45;12.73;;;;;;;12.63;56.96;98214.61;1717843;82;21025;-73
2022/11/28 10:52:58;;;;;;;21.60;14.28;;;;;;;13.53;53.25;98211.39;1705540;82;20981;-73
2022/11/28 10:55:42;;;;;;;20.72;13.28;;;;;;;14.06;48.67;98205.81;1722572;82;20982;-73
2022/11/28 10:58:23;;;;;;;18.05;11.48;;;;;;;14.66;51.30;98201.14;1729452;82;21019;-74
2022/11/28 11:00:55;;;;;;;17.40;11.70;;;;;;;14.83;49.21;98200.44;1723419;82;21012;-73
2022/11/28 11:03:29;;;;;;;22.48;14.03;;;;;;;14.86;46.21;98200.28;1735368;82;21003;-75
2022/11/28 11:05:56;;;;;;;23.10;14.50;;;;;;;14.58;43.63;98191.25;1740498;82;21000;-74
2022/11/28 11:08:30;;;;;;;20.48;14.13;;;;;;;14.16;46.75;98197.83;1740386;81;21068;-73
2022/11/28 11:11:20;;;;;;;24.12;14.68;;;;;;;13.59;45.75;98204.49;1745565;81;21481;-73
2022/11/28 11:14:16;;;;;;;24.10;13.85;;;;;;;13.26;47.24;98198.63;1743062;81;21520;-74
2022/11/28 11:16:58;;;;;;;24.30;13.90;;;;;;;12.88;49.43;98190.66;1706326;83;21043;-74
2022/11/28 11:19:39;;;;;;;26.80;13.78;;;;;;;12.17;47.69;98197.08;1740047;81;20988;-74
2022/11/28 11:22:19;;;;;;;21.45;13.40;;;;;;;11.45;48.31;98205.88;1740870;81;21004;-74
2022/11/28 11:25:16;;;;;;;19.45;12.47;;;;;;;11.06;50.92;98195.95;1712908;82;21028;-75
2022/11/28 11:27:53;;;;;;;21.25;12.80;;;;;;;10.79;51.93;98194.91;1723979;82;20993;-74
2022/11/28 11:30:37;;;;;;;23.50;13.40;;;;;;;10.53;52.30;98197.81;1726460;83;21028;-74
2022/11/28 11:33:11;;;;;;;22.73;13.53;;;;;;;10.26;52.76;98193.61;1726079;81;21009;-74
2022/11/28 11:35:48;;;;;;;25.02;13.78;;;;;;;9.97;53.12;98197.84;1704519;83;21060;-72
2022/11/28 11:38:23;;;;;;;23.83;13.30;;;;;;;9.72;53.75;98198.42;1726154;83;21387;-74
2022/11/28 11:40:53;;;;;;;21.97;13.43;;;;;;;9.55;54.73;98200.13;1725879;83;20976;-74
2022/11/28 11:43:31;;;;;;;20.40;12.13;;;;;;;9.43;55.27;98199.94;1730550;81;21494;-72
2022/11/28 11:46:12;;;;;;;22.65;11.85;;;;;;;9.34;55.59;98195.25;1734855;81;21000;-74
2022/11/28 11:48:43;;;;;;;21.05;12.03;;;;;;;9.31;55.85;98194.45;1691589;83;21012;-74
2022/11/28 11:51:26;;;;;;;18.92;11.05;;;;;;;9.17;54.71;98192.96;1677259;84;21070;-74
2022/11/28 11:54:16;;;;;;;22.45;11.93;;;;;;;9.01;55.77;98199.00;1716637;81;21017;-73
2022/11/28 11:56:49;;;;;;;22.87;11.88;;;;;;;8.84;55.38;98192.73;1704382;81;21072;-73